This is the latest recevied weather packets stored in our database for station/object N5SNT-2. If no packets are shown the sender has not sent any weather packets the latest 10 day(s).
| Time | Temp. | Humidity | Pressure | Rain* | Wind** | Luminosity | Snow |
|---|---|---|---|---|---|---|---|
| 1777574844 | 21.67° C | 82% | 1014 hPa | 0 mm | - | 400 W/m² | - |
| 1777574545 | 22.22° C | 80% | 1014 hPa | 0 mm | - | 420 W/m² | - |
| 1777574243 | 22.22° C | 80% | 1014 hPa | 0 mm | - | 373 W/m² | - |
| 1777573943 | 22.22° C | 80% | 1014 hPa | 0 mm | - | 600 W/m² | - |
| 1777573644 | 21.67° C | 80% | 1014 hPa | 0 mm | - | 620 W/m² | - |
| 1777573344 | 21.11° C | 83% | 1014 hPa | 0 mm | - | 723 W/m² | - |
| 1777573044 | 21.67° C | 82% | 1014 hPa | 0 mm | - | 363 W/m² | - |
| 1777572744 | 21.67° C | 82% | 1014 hPa | 0 mm | - | 287 W/m² | - |
| 1777572444 | 22.22° C | 82% | 1014 hPa | 0 mm | - | 229 W/m² | - |
| 1777572144 | 21.67° C | 83% | 1014 hPa | 0 mm | - | 327 W/m² | - |
| 1777571843 | 22.22° C | 81% | 1014 hPa | 0 mm | - | 344 W/m² | - |
| 1777571545 | 22.78° C | 79% | 1014 hPa | 0 mm | - | 423 W/m² | - |
| 1777571244 | 21.67° C | 81% | 1014 hPa | 0 mm | - | 443 W/m² | - |
| 1777570943 | 21.67° C | 83% | 1014 hPa | 0 mm | - | 405 W/m² | - |
| 1777570644 | 21.67° C | 83% | 1014 hPa | 0 mm | - | 343 W/m² | - |
| 1777570344 | 21.67° C | 83% | 1014 hPa | 0 mm | - | 286 W/m² | - |
| 1777570044 | 21.67° C | 83% | 1014 hPa | 0 mm | - | 306 W/m² | - |
| 1777569744 | 21.67° C | 83% | 1014 hPa | 0 mm | - | 312 W/m² | - |
| 1777569444 | 21.67° C | 83% | 1014 hPa | 0 mm | - | 376 W/m² | - |
| 1777569144 | 21.67° C | 83% | 1015 hPa | 0 mm | - | 372 W/m² | - |
| 1777568843 | 21.11° C | 84% | 1015 hPa | 0 mm | - | 394 W/m² | - |
| 1777568544 | 20.56° C | 83% | 1015 hPa | 0 mm | - | 456 W/m² | - |
| 1777568244 | 20.56° C | 85% | 1015 hPa | 0 mm | - | 457 W/m² | - |
| 1777567945 | 20° C | 85% | 1015 hPa | 0 mm | - | 628 W/m² | - |
| 1777567644 | 20° C | 86% | 1015 hPa | 0 mm | - | 433 W/m² | - |
* Rain latest hour (hover to see other rain measurements)
** Current wind speed in m/s (hover to see current wind gust speed)